Time;durP1;ratioP1;P1;durP2;ratioP2;P2;SDS_P1;SDS_P2;PMS_P1;PMS_P2;Temp;Humidity;BMP_temperature;BMP_pressure;BME280_temperature;BME280_humidity;BME280_pressure;Samples;Min_cycle;Max_cycle;Signal;HPM_P1;HPM_P2
2021/10/25 00:00:29;;;;;;;7.65;5.00;;;;;;;;;;5105191;28;24394;-58
2021/10/25 00:02:56;;;;;;;4.90;4.40;;;;;;;;;;5107493;28;24398;-58
2021/10/25 00:05:22;;;;;;;5.90;5.10;;;;;;;;;;5103365;28;24393;-58
2021/10/25 00:07:47;;;;;;;5.30;4.80;;;;;;;;;;5101499;28;24911;-58
2021/10/25 00:10:12;;;;;;;5.70;4.90;;;;;;;;;;5103448;28;24482;-58
2021/10/25 00:12:40;;;;;;;5.73;4.70;;;;;;;;;;5106848;28;25167;-58
2021/10/25 00:15:05;;;;;;;6.15;4.68;;;;;;;;;;5106516;27;24382;-58
2021/10/25 00:17:30;;;;;;;5.32;4.75;;;;;;;;;;5105125;28;24416;-58
2021/10/25 00:19:56;;;;;;;6.90;4.93;;;;;;;;;;5105031;28;24433;-58
2021/10/25 00:22:21;;;;;;;7.40;4.80;;;;;;;;;;5101265;28;24486;-58
2021/10/25 00:24:46;;;;;;;6.17;4.43;;;;;;;;;;5103045;28;24424;-58
2021/10/25 00:27:12;;;;;;;5.55;4.90;;;;;;;;;;5104812;28;24490;-59
2021/10/25 00:29:37;;;;;;;6.53;4.80;;;;;;;;;;5106437;28;24405;-58
2021/10/25 00:32:02;;;;;;;6.03;5.10;;;;;;;;;;5106595;28;24731;-58
2021/10/25 00:34:27;;;;;;;5.40;4.70;;;;;;;;;;5104609;28;24428;-58
2021/10/25 00:36:52;;;;;;;5.70;4.85;;;;;;;;;;5100128;28;24915;-58
2021/10/25 00:39:18;;;;;;;6.03;5.07;;;;;;;;;;5080117;28;24995;-59
2021/10/25 00:41:43;;;;;;;5.50;4.80;;;;;;;;;;5082293;28;24400;-59
2021/10/25 00:44:08;;;;;;;6.70;5.23;;;;;;;;;;5084002;28;24448;-59
2021/10/25 00:46:34;;;;;;;5.45;4.95;;;;;;;;;;5085813;28;24397;-58
2021/10/25 00:48:59;;;;;;;7.17;5.20;;;;;;;;;;5085633;28;24493;-59
2021/10/25 00:51:25;;;;;;;6.47;4.80;;;;;;;;;;5081961;28;24390;-58
2021/10/25 00:53:50;;;;;;;6.25;4.90;;;;;;;;;;5080375;28;24753;-58
2021/10/25 00:56:16;;;;;;;7.15;5.10;;;;;;;;;;5080008;28;24502;-57
2021/10/25 00:58:41;;;;;;;5.38;4.88;;;;;;;;;;5085508;28;24455;-57
2021/10/25 01:01:06;;;;;;;6.38;5.07;;;;;;;;;;5083209;28;24390;-58
2021/10/25 01:03:32;;;;;;;5.80;4.70;;;;;;;;;;5085156;28;24394;-58
2021/10/25 01:05:57;;;;;;;5.57;4.97;;;;;;;;;;5085395;28;24394;-58
2021/10/25 01:08:23;;;;;;;5.15;4.65;;;;;;;;;;5081439;28;24489;-58
2021/10/25 01:10:49;;;;;;;5.97;5.10;;;;;;;;;;5079751;28;24405;-58
2021/10/25 01:13:14;;;;;;;6.95;5.00;;;;;;;;;;5081507;28;24780;-58
2021/10/25 01:15:40;;;;;;;6.53;5.40;;;;;;;;;;5085161;28;25088;-57
2021/10/25 01:18:05;;;;;;;5.00;4.40;;;;;;;;;;5085325;28;24753;-57
2021/10/25 01:20:31;;;;;;;5.75;4.95;;;;;;;;;;5083230;28;24428;-57
2021/10/25 01:22:57;;;;;;;5.18;4.60;;;;;;;;;;5079679;28;25013;-57
2021/10/25 01:25:22;;;;;;;6.53;4.93;;;;;;;;;;5079415;28;24840;-59
2021/10/25 01:27:48;;;;;;;7.05;5.45;;;;;;;;;;5085014;28;24780;-58
2021/10/25 01:30:13;;;;;;;6.80;4.87;;;;;;;;;;5082914;28;24398;-58
2021/10/25 01:32:38;;;;;;;6.97;5.00;;;;;;;;;;5084445;28;24714;-58
2021/10/25 01:35:04;;;;;;;6.60;4.80;;;;;;;;;;5083314;28;24454;-58
2021/10/25 01:37:29;;;;;;;5.63;4.67;;;;;;;;;;5087402;28;24950;-58
2021/10/25 01:39:54;;;;;;;5.72;4.80;;;;;;;;;;5099732;28;24389;-59
2021/10/25 01:42:20;;;;;;;6.80;5.27;;;;;;;;;;5104851;28;24388;-59
2021/10/25 01:44:45;;;;;;;5.80;5.20;;;;;;;;;;5105426;28;24397;-58
2021/10/25 01:47:10;;;;;;;6.70;5.38;;;;;;;;;;5103532;28;24408;-59
2021/10/25 01:49:35;;;;;;;6.10;5.10;;;;;;;;;;5102883;28;24435;-59
2021/10/25 01:52:01;;;;;;;5.53;5.03;;;;;;;;;;5101184;28;24386;-56
2021/10/25 01:54:26;;;;;;;6.50;5.10;;;;;;;;;;5099253;28;24425;-58
2021/10/25 01:56:52;;;;;;;7.60;5.37;;;;;;;;;;5102939;28;24393;-57
2021/10/25 01:59:17;;;;;;;6.30;5.00;;;;;;;;;;5104024;28;24490;-57
2021/10/25 02:01:42;;;;;;;6.90;4.83;;;;;;;;;;5105204;28;24692;-58
2021/10/25 02:04:07;;;;;;;5.60;4.57;;;;;;;;;;5102709;28;25190;-58
2021/10/25 02:06:33;;;;;;;6.38;5.03;;;;;;;;;;5099531;28;24400;-57
2021/10/25 02:08:58;;;;;;;6.18;5.47;;;;;;;;;;5098855;28;24397;-58
2021/10/25 02:11:24;;;;;;;6.05;4.90;;;;;;;;;;5102052;28;24450;-58
2021/10/25 02:13:49;;;;;;;5.20;4.70;;;;;;;;;;5104129;28;24490;-58
2021/10/25 02:16:14;;;;;;;5.33;4.30;;;;;;;;;;5102654;28;24405;-58
2021/10/25 02:18:40;;;;;;;6.50;4.70;;;;;;;;;;5102644;28;24979;-57
2021/10/25 02:21:06;;;;;;;7.00;4.97;;;;;;;;;;5100727;27;24402;-57
2021/10/25 02:23:32;;;;;;;7.53;4.82;;;;;;;;;;5098830;28;24924;-57
2021/10/25 02:25:57;;;;;;;5.40;4.80;;;;;;;;;;5100598;28;24409;-57
2021/10/25 02:28:22;;;;;;;5.37;4.50;;;;;;;;;;5104161;28;25364;-57
2021/10/25 02:30:48;;;;;;;5.43;4.93;;;;;;;;;;5104359;28;24390;-58
2021/10/25 02:33:14;;;;;;;6.83;5.10;;;;;;;;;;5102261;28;25052;-57
2021/10/25 02:35:39;;;;;;;6.10;5.10;;;;;;;;;;5104227;28;24951;-58
2021/10/25 02:38:04;;;;;;;6.60;5.17;;;;;;;;;;5087681;27;24750;-58
2021/10/25 02:40:29;;;;;;;9.03;5.80;;;;;;;;;;5078038;28;24456;-59
2021/10/25 02:42:56;;;;;;;6.70;5.30;;;;;;;;;;5081908;28;24393;-58
2021/10/25 02:45:21;;;;;;;6.32;5.65;;;;;;;;;;5081930;28;24394;-58
2021/10/25 02:47:47;;;;;;;8.57;5.40;;;;;;;;;;5083624;28;24410;-58
2021/10/25 02:50:12;;;;;;;6.30;5.43;;;;;;;;;;5079971;28;24394;-58
2021/10/25 02:52:37;;;;;;;5.72;4.70;;;;;;;;;;5079722;28;24526;-58
2021/10/25 02:55:03;;;;;;;5.80;5.17;;;;;;;;;;5079083;28;24997;-59
2021/10/25 02:57:28;;;;;;;9.18;5.20;;;;;;;;;;5083328;28;24389;-58
2021/10/25 02:59:54;;;;;;;5.25;4.80;;;;;;;;;;5083901;28;24470;-58
2021/10/25 03:02:19;;;;;;;7.27;4.73;;;;;;;;;;5081686;28;24398;-59
2021/10/25 03:04:44;;;;;;;6.40;5.00;;;;;;;;;;5081856;28;24555;-59
2021/10/25 03:07:09;;;;;;;6.30;4.73;;;;;;;;;;5080183;28;24398;-59
2021/10/25 03:09:35;;;;;;;6.80;5.22;;;;;;;;;;5077926;28;24817;-59
2021/10/25 03:12:00;;;;;;;5.97;5.10;;;;;;;;;;5083581;28;24985;-58
2021/10/25 03:14:25;;;;;;;6.57;5.00;;;;;;;;;;5081488;28;24503;-59
2021/10/25 03:16:50;;;;;;;7.40;5.20;;;;;;;;;;5083671;28;24478;-59
2021/10/25 03:19:15;;;;;;;5.80;5.13;;;;;;;;;;5079565;28;24390;-59
2021/10/25 03:21:41;;;;;;;6.47;4.80;;;;;;;;;;5078095;28;24477;-58
2021/10/25 03:24:06;;;;;;;5.53;4.30;;;;;;;;;;5082062;28;24437;-58
2021/10/25 03:26:31;;;;;;;5.35;4.40;;;;;;;;;;5085585;28;24456;-58
2021/10/25 03:28:56;;;;;;;6.70;4.70;;;;;;;;;;5086628;28;24425;-58
2021/10/25 03:31:22;;;;;;;6.30;4.40;;;;;;;;;;5085235;28;24429;-57
2021/10/25 03:33:48;;;;;;;8.00;5.00;;;;;;;;;;5086991;28;24414;-57
2021/10/25 03:36:13;;;;;;;6.30;4.60;;;;;;;;;;5083579;28;24383;-58
2021/10/25 03:38:39;;;;;;;5.15;4.53;;;;;;;;;;5098975;28;24401;-57
2021/10/25 03:41:09;;;;;;;7.00;4.50;;;;;;;;;;5103710;28;24398;-57
2021/10/25 03:43:38;;;;;;;5.18;4.50;;;;;;;;;;5105656;27;24430;-57
2021/10/25 03:46:22;;;;;;;5.35;4.65;;;;;;;;;;5105734;28;24394;-56
2021/10/25 03:48:56;;;;;;;7.53;4.60;;;;;;;;;;5107516;28;24393;-57
2021/10/25 03:51:22;;;;;;;5.07;4.47;;;;;;;;;;5105473;28;24390;-57
2021/10/25 03:54:01;;;;;;;5.07;4.57;;;;;;;;;;5105410;28;24443;-58
2021/10/25 03:56:55;;;;;;;5.68;4.20;;;;;;;;;;5103350;28;24958;-57
2021/10/25 04:02:13;;;;;;;5.70;4.60;;;;;;;;;;5107141;28;24389;-57
2021/10/25 04:13:30;;;;;;;7.70;4.97;;;;;;;;;;5107233;28;24417;-58
2021/10/25 04:29:49;;;;;;;5.82;5.20;;;;;;;;;;5062908;28;24575;-57
2021/10/25 04:32:14;;;;;;;6.50;5.72;;;;;;;;;;5061061;28;24437;-57
2021/10/25 04:34:41;;;;;;;6.05;5.45;;;;;;;;;;5077412;28;24983;-58
2021/10/25 04:37:06;;;;;;;6.07;5.40;;;;;;;;;;5097640;28;24406;-57
2021/10/25 04:39:32;;;;;;;6.90;5.75;;;;;;;;;;5081835;28;24394;-57
2021/10/25 04:41:57;;;;;;;6.10;5.10;;;;;;;;;;5085953;28;24408;-57
2021/10/25 04:44:22;;;;;;;6.00;5.40;;;;;;;;;;5083872;28;24927;-57
2021/10/25 04:46:47;;;;;;;8.33;5.70;;;;;;;;;;5085721;28;24401;-57
2021/10/25 04:49:12;;;;;;;5.70;5.10;;;;;;;;;;5082341;28;24789;-57
2021/10/25 04:51:38;;;;;;;6.87;5.40;;;;;;;;;;5080233;28;25007;-58
2021/10/25 04:54:03;;;;;;;8.33;5.97;;;;;;;;;;5081908;28;24440;-57
2021/10/25 04:56:29;;;;;;;7.53;5.93;;;;;;;;;;5083759;28;24458;-58
2021/10/25 04:58:54;;;;;;;6.15;5.55;;;;;;;;;;5085627;28;24545;-57
2021/10/25 05:01:19;;;;;;;7.90;5.80;;;;;;;;;;5083567;28;24497;-58
2021/10/25 05:03:44;;;;;;;6.80;5.20;;;;;;;;;;5085822;28;24456;-58
2021/10/25 05:06:16;;;;;;;7.80;5.70;;;;;;;;;;5082243;28;24757;-57
2021/10/25 05:08:41;;;;;;;7.05;6.35;;;;;;;;;;5080036;28;24613;-58
2021/10/25 05:11:06;;;;;;;7.45;5.90;;;;;;;;;;5083690;28;24472;-58
2021/10/25 05:13:31;;;;;;;6.67;6.07;;;;;;;;;;5085313;28;24409;-57
2021/10/25 05:15:57;;;;;;;6.90;6.20;;;;;;;;;;5085028;28;24933;-57
2021/10/25 05:18:22;;;;;;;6.88;5.80;;;;;;;;;;5083319;28;24394;-57
2021/10/25 05:20:47;;;;;;;6.87;5.40;;;;;;;;;;5079654;28;24404;-56
2021/10/25 05:23:12;;;;;;;6.93;6.23;;;;;;;;;;5079593;28;24393;-57
2021/10/25 05:25:37;;;;;;;8.70;6.10;;;;;;;;;;5083181;28;24417;-58
2021/10/25 05:28:03;;;;;;;6.67;6.07;;;;;;;;;;5084614;28;24802;-58
2021/10/25 05:30:28;;;;;;;7.13;6.10;;;;;;;;;;5082890;28;24827;-58
2021/10/25 05:32:53;;;;;;;7.40;6.60;;;;;;;;;;5084854;28;24480;-58
2021/10/25 05:35:18;;;;;;;7.10;6.30;;;;;;;;;;5079405;28;24577;-58
2021/10/25 05:37:43;;;;;;;7.10;6.40;;;;;;;;;;5089333;28;24683;-57
2021/10/25 05:40:09;;;;;;;9.20;7.22;;;;;;;;;;5103053;27;24749;-57
2021/10/25 05:42:34;;;;;;;7.60;6.60;;;;;;;;;;5103290;28;24432;-56
2021/10/25 05:44:59;;;;;;;10.10;6.70;;;;;;;;;;5105151;28;24466;-57
2021/10/25 05:47:24;;;;;;;6.95;6.18;;;;;;;;;;5102907;28;24424;-57
2021/10/25 05:49:50;;;;;;;8.18;6.88;;;;;;;;;;5103073;28;24454;-57
2021/10/25 05:52:15;;;;;;;8.30;6.63;;;;;;;;;;5100408;28;25003;-57
2021/10/25 05:54:40;;;;;;;10.00;7.10;;;;;;;;;;5100424;28;24494;-57
2021/10/25 05:57:05;;;;;;;8.15;7.07;;;;;;;;;;5102988;28;24394;-57
2021/10/25 05:59:33;;;;;;;9.57;7.27;;;;;;;;;;5102301;28;24943;-57
2021/10/25 06:02:08;;;;;;;8.30;7.25;;;;;;;;;;5104604;28;24471;-57
2021/10/25 06:04:34;;;;;;;8.00;6.60;;;;;;;;;;5100958;28;24760;-57
2021/10/25 06:06:59;;;;;;;8.17;7.17;;;;;;;;;;5101072;28;24386;-57
2021/10/25 06:09:27;;;;;;;7.80;7.00;;;;;;;;;;5099122;28;24534;-57
2021/10/25 06:11:52;;;;;;;7.95;7.13;;;;;;;;;;5101532;28;24401;-58
2021/10/25 06:14:26;;;;;;;9.13;6.97;;;;;;;;;;5104371;28;24425;-57
2021/10/25 06:16:57;;;;;;;10.57;6.90;;;;;;;;;;5104810;28;24752;-57
2021/10/25 06:19:22;;;;;;;7.10;6.40;;;;;;;;;;5102436;28;24468;-57
2021/10/25 06:21:47;;;;;;;7.97;7.10;;;;;;;;;;5098898;28;24398;-58
2021/10/25 06:24:12;;;;;;;11.30;7.00;;;;;;;;;;5099090;28;24384;-57
2021/10/25 06:26:37;;;;;;;8.10;6.72;;;;;;;;;;5104399;28;24790;-58
2021/10/25 06:29:02;;;;;;;8.70;7.20;;;;;;;;;;5103772;28;24386;-57
2021/10/25 06:31:28;;;;;;;8.25;7.10;;;;;;;;;;5102303;28;24453;-57
2021/10/25 06:33:53;;;;;;;7.95;6.85;;;;;;;;;;5102346;28;24818;-57
2021/10/25 06:36:21;;;;;;;10.30;7.30;;;;;;;;;;5098613;28;24429;-57
2021/10/25 06:38:58;;;;;;;11.55;7.25;;;;;;;;;;5080048;28;24410;-57
2021/10/25 06:41:24;;;;;;;9.25;7.05;;;;;;;;;;5081926;28;24768;-58
2021/10/25 06:43:50;;;;;;;8.20;6.50;;;;;;;;;;5083888;28;24481;-58
2021/10/25 06:46:15;;;;;;;9.40;7.40;;;;;;;;;;5081790;28;24959;-58
2021/10/25 06:48:40;;;;;;;9.13;6.57;;;;;;;;;;5084012;28;24483;-57
2021/10/25 06:51:06;;;;;;;8.63;7.20;;;;;;;;;;5079973;28;24497;-57
2021/10/25 06:53:31;;;;;;;8.35;7.20;;;;;;;;;;5078264;28;24533;-58
2021/10/25 06:55:56;;;;;;;7.55;6.82;;;;;;;;;;5079220;28;24394;-58
2021/10/25 06:58:22;;;;;;;9.52;8.00;;;;;;;;;;5082906;28;24968;-58
2021/10/25 07:00:47;;;;;;;8.63;7.30;;;;;;;;;;5083537;28;24434;-58
2021/10/25 07:03:13;;;;;;;9.93;6.80;;;;;;;;;;5081978;28;24402;-58
2021/10/25 07:05:38;;;;;;;8.03;7.17;;;;;;;;;;5083652;28;24443;-58
2021/10/25 07:08:05;;;;;;;8.82;6.85;;;;;;;;;;5080106;28;24776;-58
2021/10/25 07:10:31;;;;;;;7.65;6.85;;;;;;;;;;5077818;28;24493;-57
2021/10/25 07:12:58;;;;;;;9.05;7.05;;;;;;;;;;5078080;28;24573;-58
2021/10/25 07:15:24;;;;;;;8.93;7.40;;;;;;;;;;5083393;28;24493;-57
2021/10/25 07:17:59;;;;;;;7.80;7.00;;;;;;;;;;5083190;28;24478;-58
2021/10/25 07:20:47;;;;;;;9.13;7.40;;;;;;;;;;5079909;28;24924;-58
2021/10/25 08:07:01;;;;;;;8.65;6.47;;;;;;;;;;5097913;28;24398;-58
2021/10/25 08:12:14;;;;;;;8.00;6.45;;;;;;;;;;5105301;28;24495;-58
2021/10/25 08:14:43;;;;;;;7.32;6.40;;;;;;;;;;5106773;28;24764;-58
2021/10/25 08:17:11;;;;;;;7.65;6.40;;;;;;;;;;5107077;28;24385;-57
2021/10/25 08:19:36;;;;;;;7.80;6.43;;;;;;;;;;5102529;28;24495;-58
2021/10/25 08:22:03;;;;;;;9.30;6.70;;;;;;;;;;5103022;28;24397;-58
2021/10/25 08:24:29;;;;;;;8.50;7.28;;;;;;;;;;5100944;28;24928;-58
2021/10/25 08:26:54;;;;;;;7.97;6.70;;;;;;;;;;5105201;28;24406;-58
2021/10/25 08:29:20;;;;;;;8.73;6.90;;;;;;;;;;5106330;28;24396;-58
2021/10/25 08:31:53;;;;;;;6.88;6.05;;;;;;;;;;5106411;28;24433;-58
2021/10/25 08:34:33;;;;;;;8.18;6.25;;;;;;;;;;5104351;28;24410;-59
2021/10/25 08:39:47;;;;;;;8.90;6.20;;;;;;;;;;5080520;28;24944;-59
2021/10/25 08:42:12;;;;;;;7.80;6.10;;;;;;;;;;5080573;28;24402;-58
2021/10/25 08:44:38;;;;;;;6.60;6.00;;;;;;;;;;5085722;28;24517;-58
2021/10/25 08:47:04;;;;;;;6.70;6.00;;;;;;;;;;5086029;28;24960;-57
2021/10/25 08:49:30;;;;;;;7.90;6.20;;;;;;;;;;5084240;28;25069;-58
2021/10/25 08:51:55;;;;;;;7.13;6.20;;;;;;;;;;5085910;28;24501;-59
2021/10/25 08:54:20;;;;;;;7.40;6.70;;;;;;;;;;5080204;28;24591;-58
2021/10/25 08:56:45;;;;;;;8.32;6.28;;;;;;;;;;5082444;28;24402;-60
2021/10/25 08:59:10;;;;;;;7.63;5.93;;;;;;;;;;5082203;28;24936;-58
2021/10/25 09:01:36;;;;;;;6.97;6.27;;;;;;;;;;5085293;28;24398;-58
2021/10/25 09:04:02;;;;;;;9.17;6.13;;;;;;;;;;5085040;28;24405;-58
2021/10/25 09:06:28;;;;;;;8.02;6.97;;;;;;;;;;5083811;28;24417;-57
2021/10/25 09:09:00;;;;;;;6.50;5.90;;;;;;;;;;5080333;28;24399;-57
2021/10/25 09:11:25;;;;;;;7.90;6.05;;;;;;;;;;5079840;28;24490;-58
2021/10/25 09:13:50;;;;;;;6.90;6.20;;;;;;;;;;5085561;28;25116;-58
2021/10/25 09:16:17;;;;;;;6.83;5.90;;;;;;;;;;5083797;28;24402;-59
2021/10/25 09:18:42;;;;;;;7.67;6.17;;;;;;;;;;5085168;28;24482;-58
2021/10/25 09:21:13;;;;;;;7.10;6.40;;;;;;;;;;5085020;28;24497;-58
2021/10/25 09:23:40;;;;;;;6.72;5.70;;;;;;;;;;5085107;28;24679;-58
2021/10/25 09:26:08;;;;;;;8.18;6.25;;;;;;;;;;5081544;28;24818;-57
2021/10/25 09:28:35;;;;;;;7.82;6.10;;;;;;;;;;5080705;28;24445;-58
2021/10/25 09:31:02;;;;;;;7.60;5.88;;;;;;;;;;5083117;28;25009;-58
2021/10/25 09:33:39;;;;;;;6.30;5.70;;;;;;;;;;5083040;28;24418;-58
2021/10/25 09:36:13;;;;;;;7.53;5.90;;;;;;;;;;5085082;28;24405;-58
2021/10/25 09:41:46;;;;;;;8.55;6.22;;;;;;;;;;5099686;28;24954;-58
2021/10/25 09:49:46;;;;;;;9.33;6.17;;;;;;;;;;5101656;28;25033;-57
2021/10/25 09:52:11;;;;;;;8.97;6.53;;;;;;;;;;5101471;28;24386;-57
2021/10/25 09:54:37;;;;;;;7.30;6.60;;;;;;;;;;5101436;28;24481;-57
2021/10/25 09:57:05;;;;;;;6.90;6.23;;;;;;;;;;5103081;28;24390;-57
2021/10/25 09:59:36;;;;;;;7.30;6.47;;;;;;;;;;5102426;28;24479;-58
2021/10/25 10:02:02;;;;;;;7.60;6.43;;;;;;;;;;5104869;28;24401;-57
2021/10/25 10:04:28;;;;;;;8.88;6.60;;;;;;;;;;5099318;27;24748;-59
2021/10/25 10:06:53;;;;;;;7.55;6.18;;;;;;;;;;5099352;28;24951;-59
2021/10/25 10:09:19;;;;;;;8.27;6.35;;;;;;;;;;5100778;28;25009;-59
2021/10/25 10:11:44;;;;;;;7.27;6.40;;;;;;;;;;5104784;28;24405;-59
2021/10/25 10:14:09;;;;;;;5.87;5.37;;;;;;;;;;5103903;28;24838;-59
2021/10/25 10:16:36;;;;;;;8.43;6.50;;;;;;;;;;5104404;28;24385;-59
2021/10/25 10:19:02;;;;;;;6.60;5.90;;;;;;;;;;5100937;28;24532;-60
2021/10/25 10:21:28;;;;;;;7.07;6.32;;;;;;;;;;5098922;28;24401;-60
2021/10/25 10:23:58;;;;;;;7.00;5.60;;;;;;;;;;5098710;27;24397;-60
2021/10/25 10:26:30;;;;;;;7.85;5.75;;;;;;;;;;5102629;28;24464;-59
2021/10/25 10:28:56;;;;;;;6.70;6.10;;;;;;;;;;5104044;28;24539;-58
2021/10/25 10:31:24;;;;;;;8.27;6.00;;;;;;;;;;5100445;28;24410;-57
2021/10/25 10:33:59;;;;;;;6.97;6.00;;;;;;;;;;5097637;28;24497;-60
2021/10/25 10:36:31;;;;;;;6.85;6.07;;;;;;;;;;5098936;28;24393;-60
2021/10/25 10:39:05;;;;;;;7.78;6.97;;;;;;;;;;5080655;28;24481;-59
2021/10/25 10:41:36;;;;;;;10.95;7.35;;;;;;;;;;5083827;28;24843;-60
2021/10/25 10:44:04;;;;;;;6.60;6.00;;;;;;;;;;5083709;28;24394;-59
2021/10/25 10:46:39;;;;;;;7.40;6.10;;;;;;;;;;5080044;28;24875;-60
2021/10/25 10:49:05;;;;;;;7.38;6.65;;;;;;;;;;5079967;28;24418;-59
2021/10/25 10:51:33;;;;;;;8.00;7.20;;;;;;;;;;5078315;28;24534;-59
2021/10/25 10:54:02;;;;;;;9.05;6.78;;;;;;;;;;5079412;28;24967;-59
2021/10/25 10:56:30;;;;;;;10.68;8.52;;;;;;;;;;5083510;28;24409;-59
2021/10/25 11:01:29;;;;;;;8.32;7.35;;;;;;;;;;5079862;28;24559;-59
2021/10/25 11:04:03;;;;;;;8.13;6.43;;;;;;;;;;5078033;28;25023;-59
2021/10/25 11:06:31;;;;;;;7.10;6.40;;;;;;;;;;5080046;28;24806;-59
2021/10/25 11:08:57;;;;;;;9.07;6.88;;;;;;;;;;5081562;28;24401;-59
2021/10/25 11:11:23;;;;;;;7.27;6.40;;;;;;;;;;5081613;28;24505;-60
2021/10/25 11:13:58;;;;;;;8.40;6.10;;;;;;;;;;5083040;28;25007;-60
2021/10/25 11:16:32;;;;;;;6.70;6.10;;;;;;;;;;5081767;28;24940;-58
2021/10/25 11:18:59;;;;;;;8.50;6.38;;;;;;;;;;5079774;28;24714;-58
2021/10/25 11:21:47;;;;;;;9.25;7.30;;;;;;;;;;5077583;28;24533;-58
2021/10/25 11:24:15;;;;;;;7.80;6.82;;;;;;;;;;5078023;28;24510;-58
2021/10/25 11:26:42;;;;;;;8.15;6.90;;;;;;;;;;5078080;28;24438;-58
2021/10/25 11:29:09;;;;;;;9.00;6.70;;;;;;;;;;5073866;28;24394;-58
2021/10/25 11:31:36;;;;;;;7.80;7.00;;;;;;;;;;5079355;28;25061;-58
2021/10/25 11:34:06;;;;;;;7.50;6.80;;;;;;;;;;5079692;28;24441;-59
2021/10/25 11:36:33;;;;;;;6.93;6.22;;;;;;;;;;5087827;28;24981;-59
2021/10/25 11:38:58;;;;;;;6.60;5.93;;;;;;;;;;5100041;28;24432;-59
2021/10/25 11:41:24;;;;;;;6.85;6.03;;;;;;;;;;5103701;28;24877;-59
2021/10/25 11:43:49;;;;;;;8.90;5.82;;;;;;;;;;5103186;28;24543;-59
2021/10/25 11:46:18;;;;;;;8.30;6.20;;;;;;;;;;5105240;28;24512;-59
2021/10/25 11:48:54;;;;;;;7.20;6.50;;;;;;;;;;5101369;28;24406;-58
2021/10/25 11:51:19;;;;;;;8.68;6.80;;;;;;;;;;5103024;28;24768;-60
2021/10/25 11:53:44;;;;;;;7.93;7.18;;;;;;;;;;5103222;28;24426;-58
2021/10/25 11:56:13;;;;;;;8.65;7.05;;;;;;;;;;5106909;28;24550;-60
2021/10/25 11:58:39;;;;;;;7.60;6.10;;;;;;;;;;5106668;28;24401;-60
2021/10/25 12:01:04;;;;;;;10.95;8.00;;;;;;;;;;5107183;28;24421;-59
2021/10/25 12:03:29;;;;;;;8.70;7.80;;;;;;;;;;5101364;28;24386;-59
2021/10/25 12:05:55;;;;;;;9.30;8.00;;;;;;;;;;5101639;28;24416;-59
2021/10/25 12:08:20;;;;;;;11.37;8.87;;;;;;;;;;5101504;27;24394;-57
2021/10/25 12:10:48;;;;;;;9.97;7.30;;;;;;;;;;5106829;28;24744;-59
2021/10/25 12:13:13;;;;;;;7.25;6.55;;;;;;;;;;5104808;27;24759;-59
2021/10/25 12:15:46;;;;;;;7.77;6.40;;;;;;;;;;5106513;28;24936;-59
2021/10/25 12:18:14;;;;;;;7.47;6.10;;;;;;;;;;5102647;28;24926;-59
2021/10/25 12:20:40;;;;;;;7.25;6.55;;;;;;;;;;5101155;28;24744;-59
2021/10/25 12:23:09;;;;;;;7.77;6.70;;;;;;;;;;5104453;28;24924;-59
2021/10/25 12:25:38;;;;;;;8.40;7.13;;;;;;;;;;5104713;28;24458;-60
2021/10/25 12:28:09;;;;;;;8.68;7.32;;;;;;;;;;5106738;28;24444;-58
2021/10/25 12:30:34;;;;;;;7.53;6.82;;;;;;;;;;5106100;28;24577;-58
2021/10/25 12:33:01;;;;;;;8.57;7.77;;;;;;;;;;5106380;28;24445;-59
2021/10/25 12:35:39;;;;;;;10.35;7.72;;;;;;;;;;5099459;28;24394;-59
2021/10/25 12:38:05;;;;;;;7.97;7.10;;;;;;;;;;5082483;28;24382;-60
2021/10/25 12:40:36;;;;;;;9.13;7.70;;;;;;;;;;5082097;28;24418;-59
2021/10/25 12:43:04;;;;;;;8.68;7.88;;;;;;;;;;5085962;28;24481;-59
2021/10/25 12:45:35;;;;;;;8.27;7.47;;;;;;;;;;5083965;28;25323;-59
2021/10/25 12:48:00;;;;;;;11.10;7.70;;;;;;;;;;5082083;28;24761;-59
2021/10/25 12:50:30;;;;;;;8.50;7.60;;;;;;;;;;5080204;28;24382;-59
2021/10/25 12:52:55;;;;;;;8.48;7.30;;;;;;;;;;5081743;28;24462;-58
2021/10/25 12:55:21;;;;;;;7.93;7.13;;;;;;;;;;5083023;28;24429;-60
2021/10/25 12:57:46;;;;;;;7.90;7.20;;;;;;;;;;5085014;28;24386;-59
2021/10/25 13:00:12;;;;;;;9.20;8.30;;;;;;;;;;5084136;28;24482;-60
2021/10/25 13:02:41;;;;;;;8.57;7.70;;;;;;;;;;5070416;28;24391;-59
2021/10/25 13:05:08;;;;;;;7.53;6.72;;;;;;;;;;5061831;28;24473;-59
2021/10/25 13:07:34;;;;;;;8.75;7.85;;;;;;;;;;5069917;28;24945;-59
2021/10/25 13:09:59;;;;;;;10.05;7.30;;;;;;;;;;5085003;28;24389;-59
2021/10/25 13:12:24;;;;;;;8.50;7.70;;;;;;;;;;5083491;28;24435;-59
2021/10/25 13:14:49;;;;;;;8.63;7.70;;;;;;;;;;5081703;28;24426;-60
2021/10/25 13:17:15;;;;;;;8.13;7.32;;;;;;;;;;5081743;28;24486;-59
2021/10/25 13:19:40;;;;;;;10.05;7.28;;;;;;;;;;5081533;28;24826;-59
2021/10/25 13:22:06;;;;;;;8.80;7.90;;;;;;;;;;5083279;28;24455;-61
2021/10/25 13:24:31;;;;;;;8.10;7.25;;;;;;;;;;5082957;28;24798;-60
2021/10/25 13:26:56;;;;;;;10.10;7.80;;;;;;;;;;5085248;28;24721;-60
2021/10/25 13:29:21;;;;;;;9.00;8.10;;;;;;;;;;5081363;28;24481;-59
2021/10/25 13:31:47;;;;;;;8.70;7.70;;;;;;;;;;5079453;28;24956;-59
2021/10/25 13:34:12;;;;;;;8.07;7.00;;;;;;;;;;5081304;28;24991;-60
2021/10/25 13:36:37;;;;;;;9.57;7.90;;;;;;;;;;5100987;28;24539;-59
2021/10/25 13:39:03;;;;;;;9.37;8.40;;;;;;;;;;5105218;28;24776;-59
2021/10/25 13:41:28;;;;;;;10.88;8.40;;;;;;;;;;5102973;28;24481;-60
2021/10/25 13:43:55;;;;;;;9.73;7.70;;;;;;;;;;5103212;28;24476;-59
2021/10/25 13:46:20;;;;;;;10.10;8.02;;;;;;;;;;5099628;28;24386;-59
2021/10/25 13:48:45;;;;;;;9.90;8.20;;;;;;;;;;5101157;28;24396;-59
2021/10/25 13:51:11;;;;;;;8.70;7.90;;;;;;;;;;5101195;28;24902;-59
2021/10/25 13:53:36;;;;;;;7.80;7.00;;;;;;;;;;5104281;28;24421;-58
2021/10/25 13:56:02;;;;;;;9.67;7.87;;;;;;;;;;5105012;28;24908;-57
2021/10/25 13:58:27;;;;;;;8.87;7.97;;;;;;;;;;5102477;28;24950;-58
2021/10/25 14:00:52;;;;;;;10.60;8.80;;;;;;;;;;5099693;28;24406;-59
2021/10/25 14:03:18;;;;;;;11.75;8.73;;;;;;;;;;5099202;28;24413;-59
2021/10/25 14:05:43;;;;;;;11.10;8.60;;;;;;;;;;5103075;28;24410;-59
2021/10/25 14:08:09;;;;;;;9.88;8.20;;;;;;;;;;5102862;28;25281;-58
2021/10/25 14:10:39;;;;;;;11.40;9.75;;;;;;;;;;5104394;28;24412;-58
2021/10/25 14:13:16;;;;;;;12.35;9.10;;;;;;;;;;5104510;28;24513;-59
2021/10/25 14:15:45;;;;;;;13.43;9.63;;;;;;;;;;5098873;28;24482;-59
2021/10/25 14:18:11;;;;;;;12.70;9.30;;;;;;;;;;5099298;28;24480;-59
2021/10/25 14:20:36;;;;;;;10.57;9.43;;;;;;;;;;5104087;28;24492;-59
2021/10/25 14:23:01;;;;;;;11.70;9.30;;;;;;;;;;5102619;28;24397;-59
2021/10/25 14:25:27;;;;;;;10.10;9.10;;;;;;;;;;5069957;28;24978;-60
2021/10/25 14:27:53;;;;;;;12.57;10.25;;;;;;;;;;5064004;28;24398;-58
2021/10/25 14:30:19;;;;;;;12.47;9.67;;;;;;;;;;5059797;28;24754;-59
2021/10/25 14:32:45;;;;;;;14.00;10.15;;;;;;;;;;5057705;28;24929;-58
2021/10/25 14:35:10;;;;;;;11.10;9.90;;;;;;;;;;5091570;28;24424;-59
2021/10/25 14:37:40;;;;;;;10.23;9.13;;;;;;;;;;5101888;28;24393;-59
2021/10/25 14:40:10;;;;;;;10.80;9.70;;;;;;;;;;5103865;28;24392;-58
2021/10/25 14:42:36;;;;;;;11.25;9.65;;;;;;;;;;5103078;28;24450;-59
2021/10/25 14:53:23;;;;;;;15.88;12.77;;;;;;;;;;5102700;28;24433;-60
2021/10/25 14:58:20;;;;;;;12.10;10.90;;;;;;;;;;5102104;28;24744;-59
2021/10/25 15:00:45;;;;;;;15.30;12.57;;;;;;;;;;5098294;28;24390;-59
2021/10/25 15:03:11;;;;;;;16.83;12.80;;;;;;;;;;5098707;28;24931;-60
2021/10/25 15:05:36;;;;;;;13.40;11.97;;;;;;;;;;5102045;28;24402;-58
2021/10/25 15:08:01;;;;;;;12.70;11.50;;;;;;;;;;5104011;28;24405;-59
2021/10/25 15:10:27;;;;;;;12.03;10.90;;;;;;;;;;5101888;28;24394;-59
2021/10/25 15:12:52;;;;;;;12.13;10.93;;;;;;;;;;5103873;28;24451;-60
2021/10/25 15:15:18;;;;;;;13.18;11.30;;;;;;;;;;5098152;28;24598;-60
2021/10/25 15:17:43;;;;;;;12.13;10.57;;;;;;;;;;5098153;28;24390;-60
2021/10/25 15:20:09;;;;;;;13.60;10.95;;;;;;;;;;5104318;28;24458;-60
2021/10/25 15:22:35;;;;;;;13.43;11.30;;;;;;;;;;5106214;28;24747;-58
2021/10/25 15:25:00;;;;;;;13.90;10.97;;;;;;;;;;5107849;28;24397;-58
2021/10/25 15:27:28;;;;;;;13.33;10.87;;;;;;;;;;5106143;28;24401;-59
2021/10/25 15:29:53;;;;;;;15.18;10.98;;;;;;;;;;5103942;28;24484;-58
2021/10/25 15:32:20;;;;;;;13.40;11.33;;;;;;;;;;5102128;28;24528;-59
2021/10/25 15:34:47;;;;;;;13.02;11.63;;;;;;;;;;5093210;28;24424;-59
2021/10/25 15:37:13;;;;;;;13.87;11.13;;;;;;;;;;5083752;28;24761;-58
2021/10/25 15:39:39;;;;;;;17.25;12.18;;;;;;;;;;5086585;28;24386;-59
2021/10/25 15:42:05;;;;;;;14.18;12.68;;;;;;;;;;5087159;28;24394;-59
2021/10/25 15:44:30;;;;;;;13.60;11.90;;;;;;;;;;5083335;28;24396;-60
2021/10/25 15:46:56;;;;;;;14.32;10.93;;;;;;;;;;5081895;28;24947;-59
2021/10/25 15:49:22;;;;;;;13.05;11.75;;;;;;;;;;5081608;28;24826;-59
2021/10/25 15:51:49;;;;;;;12.90;11.52;;;;;;;;;;5087021;28;24390;-59
2021/10/25 15:54:15;;;;;;;14.52;13.02;;;;;;;;;;5084684;28;24422;-59
2021/10/25 15:56:40;;;;;;;13.57;12.03;;;;;;;;;;5087037;28;24394;-58
2021/10/25 15:59:05;;;;;;;11.70;10.50;;;;;;;;;;5083185;28;24818;-58
2021/10/25 16:01:30;;;;;;;13.23;11.82;;;;;;;;;;5081285;28;24393;-58
2021/10/25 16:03:55;;;;;;;14.60;12.30;;;;;;;;;;5082945;28;24398;-58
2021/10/25 16:06:21;;;;;;;13.38;11.98;;;;;;;;;;5083706;28;24493;-59
2021/10/25 16:08:46;;;;;;;13.20;11.80;;;;;;;;;;5086378;28;24390;-59
2021/10/25 16:11:11;;;;;;;14.20;12.70;;;;;;;;;;5086804;28;24517;-59